Terminal Aerodrome Forecast
Issued by NWS Corpus Christi, TX

Home | Current Version | Previous Version | Text Only | Print | Product List | Glossary On
Versions: 1 2 3 4 5 6 7 8 9 10 11 12 13 14 15 16 17 18 19 20 21 22 23 24 25 26 27 28
000
FTUS44 KCRP 202339
TAFVCT
TAF
KVCT 202339Z 2100/2124 16015KT P6SM BKN025 BKN035
      TEMPO 2100/2103 SCT025 BKN035
     FM210600 16010KT 5SM HZ BKN015
     FM211500 17018G23KT P6SM SCT025 SCT030 BKN200
     FM212300 15020G26KT P6SM SCT030 BKN200=

USA.gov is the U.S. government's official web portal to all federal, state and local government web resources and services.